Time;durP1;ratioP1;P1;durP2;ratioP2;P2;SDS_P1;SDS_P2;PMS_P1;PMS_P2;Temp;Humidity;BMP_temperature;BMP_pressure;BME280_temperature;BME280_humidity;BME280_pressure;Samples;Min_cycle;Max_cycle;Signal;HPM_P1;HPM_P2
2019/04/21 00:02:15;;;;;;;8.9;7.3;;;;;;;11.68;42.73926;966.0753;;;;
2019/04/21 00:04:40;;;;;;;10;6.8;;;;;;;11.66;43.75293;966.0764;;;;
2019/04/21 00:07:05;;;;;;;8.8;7;;;;;;;11.59;44.31055;966.113;;;;
2019/04/21 00:09:30;;;;;;;8.8;7;;;;;;;11.6;44.18457;966.1336;;;;
2019/04/21 00:11:55;;;;;;;9.6;6.8;;;;;;;11.65;43.20898;966.0867;;;;
2019/04/21 00:14:20;;;;;;;10.9;7;;;;;;;11.61;43.80469;966.0287;;;;
2019/04/21 00:16:45;;;;;;;9.8;6.6;;;;;;;11.58;44.1709;966.0009;;;;
2019/04/21 00:19:18;;;;;;;9.8;7.5;;;;;;;11.49;44.7959;966.0563;;;;
2019/04/21 00:21:36;;;;;;;10;7.5;;;;;;;11.46;45.29004;966.0453;;;;
2019/04/21 00:24:07;;;;;;;11.3;7.9;;;;;;;11.41;46.41406;966.0928;;;;
2019/04/21 00:26:26;;;;;;;11.3;7.7;;;;;;;11.39;44.72754;966.0031;;;;
2019/04/21 00:28:52;;;;;;;9.7;8.1;;;;;;;11.43;46.00098;965.9563;;;;
2019/04/21 00:31:17;;;;;;;13.2;7.9;;;;;;;11.39;45.07422;965.9551;;;;
2019/04/21 00:33:42;;;;;;;10.5;7.6;;;;;;;11.35;44.79297;965.9492;;;;
2019/04/21 00:36:07;;;;;;;10.2;7.3;;;;;;;11.29;45.07617;965.9542;;;;
2019/04/21 00:38:32;;;;;;;11.2;7.7;;;;;;;11.34;44.82715;965.9724;;;;
2019/04/21 00:40:57;;;;;;;10.2;7.4;;;;;;;11.3;44.86914;965.9446;;;;
2019/04/21 00:43:22;;;;;;;10.6;7.6;;;;;;;11.26;45.06055;965.9395;;;;
2019/04/21 00:45:47;;;;;;;9.4;7.1;;;;;;;11.3;44.06152;965.8972;;;;
2019/04/21 00:48:12;;;;;;;10.8;7.8;;;;;;;11.37;45.30273;965.8699;;;;
2019/04/21 00:50:39;;;;;;;10.1;7.8;;;;;;;11.33;44.05273;965.8123;;;;
2019/04/21 00:53:09;;;;;;;13.1;7.8;;;;;;;11.29;45.47949;965.8889;;;;
2019/04/21 00:55:30;;;;;;;11.2;7.8;;;;;;;11.21;44.74512;965.8042;;;;
2019/04/21 00:57:53;;;;;;;10.5;7.9;;;;;;;11.13;45.05957;965.8064;;;;
2019/04/21 01:00:19;;;;;;;11.4;7.9;;;;;;;11.17;46.22754;965.8156;;;;
2019/04/21 01:02:44;;;;;;;11;8;;;;;;;11.12;45.53027;965.7717;;;;
2019/04/21 01:05:09;;;;;;;10.8;7.3;;;;;;;11.02;46.32715;965.7275;;;;
2019/04/21 01:07:34;;;;;;;10.5;8.1;;;;;;;11.03;46.52246;965.7056;;;;
2019/04/21 01:10:00;;;;;;;10.7;7.8;;;;;;;11.03;45.44043;965.6788;;;;
2019/04/21 01:12:25;;;;;;;10.2;7.5;;;;;;;11;46.38184;965.686;;;;
2019/04/21 01:14:50;;;;;;;11.3;7.5;;;;;;;10.95;45.75488;965.6858;;;;
2019/04/21 01:17:15;;;;;;;10.5;8;;;;;;;10.9;45.38086;965.694;;;;
2019/04/21 01:19:40;;;;;;;11.9;7.8;;;;;;;10.73;45.65039;965.6721;;;;
2019/04/21 01:22:05;;;;;;;11.5;8.2;;;;;;;10.74;46.82617;965.6934;;;;
2019/04/21 01:24:31;;;;;;;11.4;8;;;;;;;10.73;46.67578;965.6892;;;;
2019/04/21 01:26:56;;;;;;;11.2;8;;;;;;;10.67;47.01367;965.681;;;;
2019/04/21 01:29:21;;;;;;;11.7;8.4;;;;;;;10.6;46.91406;965.6652;;;;
2019/04/21 01:31:46;;;;;;;13.5;8.4;;;;;;;10.52;47.7793;965.6888;;;;
2019/04/21 01:34:12;;;;;;;12.5;8.3;;;;;;;10.49;47.81152;965.6301;;;;
2019/04/21 01:36:37;;;;;;;12;8.4;;;;;;;10.47;48.41797;965.6319;;;;
2019/04/21 01:39:02;;;;;;;12.9;8.6;;;;;;;10.43;47.80566;965.6088;;;;
2019/04/21 01:41:27;;;;;;;11.2;8.4;;;;;;;10.5;48.69824;965.5817;;;;
2019/04/21 01:43:52;;;;;;;11.1;8;;;;;;;10.43;49.99121;965.5779;;;;
2019/04/21 01:46:17;;;;;;;12;8.7;;;;;;;10.35;49.77539;965.5627;;;;
2019/04/21 01:48:42;;;;;;;12.5;8.6;;;;;;;10.32;49.93164;965.5736;;;;
2019/04/21 01:51:09;;;;;;;13.1;8.8;;;;;;;10.23;51.05957;965.5584;;;;
2019/04/21 01:53:40;;;;;;;11.2;8.2;;;;;;;10.21;50.42578;965.5728;;;;
2019/04/21 01:56:27;;;;;;;11.2;8.7;;;;;;;10.27;51.06543;965.6124;;;;
2019/04/21 01:58:25;;;;;;;12;8.7;;;;;;;10.21;51.5752;965.6297;;;;
2019/04/21 02:00:52;;;;;;;12.9;8.5;;;;;;;10.08;52.08789;965.6916;;;;
2019/04/21 02:03:15;;;;;;;12.6;8.5;;;;;;;10.13;51.1875;965.6265;;;;
2019/04/21 02:05:41;;;;;;;11.8;8.5;;;;;;;10.08;51.14551;965.5742;;;;
2019/04/21 02:08:06;;;;;;;10.2;8.1;;;;;;;10.1;51.63086;965.5555;;;;
2019/04/21 02:10:31;;;;;;;13.6;9.1;;;;;;;10.08;52.22754;965.4744;;;;
2019/04/21 02:12:56;;;;;;;13.4;9.3;;;;;;;10.04;53.48633;965.5073;;;;
2019/04/21 02:15:21;;;;;;;12.3;9.1;;;;;;;9.96;53.46484;965.3923;;;;
2019/04/21 02:17:46;;;;;;;12.8;9.4;;;;;;;9.98;53.42188;965.4166;;;;
2019/04/21 02:20:11;;;;;;;11.8;9.4;;;;;;;9.96;53.95898;965.4183;;;;
2019/04/21 02:22:36;;;;;;;13.3;9.2;;;;;;;9.95;53.08594;965.4272;;;;
2019/04/21 02:25:01;;;;;;;13.1;9.6;;;;;;;9.92;53.20605;965.4692;;;;
2019/04/21 02:27:27;;;;;;;10.7;9;;;;;;;9.86;52.98145;965.465;;;;
2019/04/21 02:29:52;;;;;;;13.9;10.2;;;;;;;9.74;54.0459;965.4001;;;;
2019/04/21 02:32:17;;;;;;;14.6;9.8;;;;;;;9.69;54.60352;965.3908;;;;
2019/04/21 02:34:42;;;;;;;13.8;9.7;;;;;;;9.63;54.90527;965.3995;;;;
2019/04/21 02:37:08;;;;;;;13;9.7;;;;;;;9.51;55.17773;965.3041;;;;
2019/04/21 02:39:33;;;;;;;14.1;9.8;;;;;;;9.49;56.03613;965.28;;;;
2019/04/21 02:41:58;;;;;;;12.4;9.3;;;;;;;9.46;55.46875;965.2343;;;;
2019/04/21 02:44:23;;;;;;;14.2;9.8;;;;;;;9.49;55.50781;965.2148;;;;
2019/04/21 02:46:48;;;;;;;16;10.4;;;;;;;9.43;55.60352;965.2667;;;;
2019/04/21 02:49:15;;;;;;;12.3;10.3;;;;;;;9.47;55.73438;965.2159;;;;
2019/04/21 02:51:40;;;;;;;13.3;10.2;;;;;;;9.5;55.08301;965.1533;;;;
2019/04/21 02:54:05;;;;;;;17.2;10.3;;;;;;;9.42;54.4873;965.1506;;;;
2019/04/21 02:56:31;;;;;;;15.2;9.9;;;;;;;9.33;55.87793;965.1266;;;;
2019/04/21 02:59:11;;;;;;;13.7;9.6;;;;;;;9.4;55.29004;965.1299;;;;
2019/04/21 03:01:30;;;;;;;14.4;10;;;;;;;9.34;54.87891;965.0611;;;;
2019/04/21 03:03:53;;;;;;;13.9;9.8;;;;;;;9.43;55.92383;964.9852;;;;
2019/04/21 03:06:33;;;;;;;12.1;9.4;;;;;;;9.42;55.14258;965.0331;;;;
2019/04/21 03:08:37;;;;;;;12.3;9.5;;;;;;;9.28;55.70996;964.9917;;;;
2019/04/21 03:11:02;;;;;;;14.2;9.6;;;;;;;9.27;55.47949;964.9529;;;;
2019/04/21 03:13:28;;;;;;;12.9;10;;;;;;;9.29;55.83691;964.9993;;;;
2019/04/21 03:15:53;;;;;;;17;10.7;;;;;;;9.23;55.6582;964.908;;;;
2019/04/21 03:18:18;;;;;;;14.1;9.7;;;;;;;9.24;55.8418;964.8901;;;;
2019/04/21 03:20:44;;;;;;;15.7;10.6;;;;;;;9.2;56.11328;964.8712;;;;
2019/04/21 03:23:09;;;;;;;16.4;9.9;;;;;;;9.08;56.31445;964.8329;;;;
2019/04/21 03:25:34;;;;;;;13.2;10.2;;;;;;;9.15;55.84277;964.81;;;;
2019/04/21 03:27:59;;;;;;;15.1;10.1;;;;;;;9.1;56.05371;964.7012;;;;
2019/04/21 03:30:24;;;;;;;13.5;10.1;;;;;;;9.08;55.58105;964.6331;;;;
2019/04/21 03:32:50;;;;;;;14.4;10.1;;;;;;;8.99;56.20117;964.6741;;;;
2019/04/21 03:35:15;;;;;;;14.8;10;;;;;;;8.94;56.125;964.6088;;;;
2019/04/21 03:37:40;;;;;;;13.3;10.2;;;;;;;8.89;56.51953;964.634;;;;
2019/04/21 03:40:06;;;;;;;13.2;10;;;;;;;8.82;56.95605;964.6177;;;;
2019/04/21 03:42:31;;;;;;;13;9.7;;;;;;;8.84;56.2832;964.6509;;;;
2019/04/21 03:44:56;;;;;;;12.1;9.3;;;;;;;8.87;55.34863;964.635;;;;
2019/04/21 03:47:21;;;;;;;12.8;9.8;;;;;;;8.88;54.16895;964.6649;;;;
2019/04/21 03:49:46;;;;;;;12.4;9.4;;;;;;;8.91;52.92188;964.6322;;;;
2019/04/21 03:52:15;;;;;;;12.8;9.8;;;;;;;8.95;53.55762;964.6426;;;;
2019/04/21 03:54:40;;;;;;;14.1;9.8;;;;;;;8.86;54.58984;964.5801;;;;
2019/04/21 03:57:06;;;;;;;16;10.6;;;;;;;8.85;54.7832;964.6668;;;;
2019/04/21 03:59:39;;;;;;;13.5;10.4;;;;;;;8.83;53.80664;964.5818;;;;
2019/04/21 04:02:53;;;;;;;15.7;10.5;;;;;;;8.8;53.85938;964.5669;;;;
2019/04/21 04:06:55;;;;;;;13.1;10.2;;;;;;;8.83;53.66895;964.5215;;;;
2019/04/21 04:07:30;;;;;;;15.6;10.7;;;;;;;8.68;53.74121;964.6017;;;;
2019/04/21 04:09:54;;;;;;;12.2;10;;;;;;;8.69;54.01758;964.5402;;;;
2019/04/21 04:12:19;;;;;;;13.9;10.4;;;;;;;8.68;54.38477;964.597;;;;
2019/04/21 04:14:44;;;;;;;11.1;9.5;;;;;;;8.68;53.69727;964.5881;;;;
2019/04/21 04:17:09;;;;;;;15.1;10.2;;;;;;;8.64;53.97656;964.6042;;;;
2019/04/21 04:19:34;;;;;;;13.4;9.9;;;;;;;8.6;54.55664;964.5728;;;;
2019/04/21 04:22:00;;;;;;;12.1;9.9;;;;;;;8.49;53.7627;964.6022;;;;
2019/04/21 04:24:25;;;;;;;12.9;9.5;;;;;;;8.53;53.84961;964.6552;;;;
2019/04/21 04:26:50;;;;;;;11.4;9.2;;;;;;;8.62;52.1875;964.5712;;;;
2019/04/21 04:29:15;;;;;;;13.3;9.3;;;;;;;8.63;50.93945;964.6486;;;;
2019/04/21 04:31:40;;;;;;;12.1;9.3;;;;;;;8.7;50.54785;964.6389;;;;
2019/04/21 04:34:05;;;;;;;15.2;9.7;;;;;;;8.68;50.99121;964.6448;;;;
2019/04/21 04:36:30;;;;;;;12.5;9.7;;;;;;;8.63;51.54785;964.6658;;;;
2019/04/21 04:39:07;;;;;;;13.7;10.1;;;;;;;8.61;51.87695;964.5887;;;;
2019/04/21 04:41:28;;;;;;;14.8;10.9;;;;;;;8.57;51.27637;964.6653;;;;
2019/04/21 04:43:45;;;;;;;14.6;11;;;;;;;8.6;51.1084;964.6809;;;;
2019/04/21 04:46:10;;;;;;;14.8;11.1;;;;;;;8.59;52.08008;964.7512;;;;
2019/04/21 04:48:36;;;;;;;14.2;10.6;;;;;;;8.57;51.97559;964.6961;;;;
2019/04/21 04:51:01;;;;;;;15.7;10.8;;;;;;;8.56;51.33301;964.6359;;;;
2019/04/21 04:53:26;;;;;;;14.3;10.6;;;;;;;8.55;51.84766;964.5848;;;;
2019/04/21 04:55:51;;;;;;;15.7;10.6;;;;;;;8.52;51.22461;964.587;;;;
2019/04/21 04:58:16;;;;;;;13;10.1;;;;;;;8.58;52.14844;964.5826;;;;
2019/04/21 05:00:41;;;;;;;17.5;10.8;;;;;;;8.61;50.33008;964.5633;;;;
2019/04/21 05:03:06;;;;;;;13.6;10.3;;;;;;;8.65;50.47168;964.5389;;;;
2019/04/21 05:05:50;;;;;;;12.7;9.9;;;;;;;8.62;49.32324;964.5022;;;;
2019/04/21 05:08:15;;;;;;;13.8;10.3;;;;;;;8.61;50.25;964.4847;;;;
2019/04/21 05:10:40;;;;;;;13.7;10.5;;;;;;;8.61;50.21582;964.5326;;;;
2019/04/21 05:13:05;;;;;;;13.1;10.2;;;;;;;8.67;50.38281;964.5891;;;;
2019/04/21 05:15:30;;;;;;;11.5;9.7;;;;;;;8.62;50.5957;964.4885;;;;
2019/04/21 05:17:55;;;;;;;13;10.3;;;;;;;8.6;51.1084;964.5858;;;;
2019/04/21 05:20:22;;;;;;;12.9;9.5;;;;;;;8.65;50.64453;964.6252;;;;
2019/04/21 05:22:47;;;;;;;15.2;10.1;;;;;;;8.73;49.81738;964.6627;;;;
2019/04/21 05:25:18;;;;;;;12.9;10;;;;;;;8.74;50.10547;964.7363;;;;
2019/04/21 05:27:43;;;;;;;13.9;10.6;;;;;;;8.79;49.83496;964.6972;;;;
2019/04/21 05:30:14;;;;;;;13.9;10.6;;;;;;;8.85;50.3584;964.7017;;;;
2019/04/21 05:32:41;;;;;;;13.8;10.3;;;;;;;8.89;51.0166;964.7252;;;;
2019/04/21 05:35:24;;;;;;;12.7;10.2;;;;;;;8.93;50.22949;964.6011;;;;
2019/04/21 05:37:34;;;;;;;12.4;10;;;;;;;8.94;49.97949;964.6389;;;;
2019/04/21 05:39:59;;;;;;;14.6;10;;;;;;;8.98;49.16895;964.5712;;;;
2019/04/21 05:42:14;;;;;;;13.3;9.7;;;;;;;9.08;48.83594;964.6289;;;;
2019/04/21 05:44:39;;;;;;;13.4;9.4;;;;;;;9.17;49.60449;964.5139;;;;
2019/04/21 05:47:12;;;;;;;11.8;8.8;;;;;;;9.16;47.50488;964.488;;;;
2019/04/21 05:49:38;;;;;;;12.9;9.1;;;;;;;9.26;46.01172;964.5201;;;;
2019/04/21 05:51:54;;;;;;;12.5;8.9;;;;;;;9.33;47.61328;964.4847;;;;
2019/04/21 05:54:20;;;;;;;12.6;8.5;;;;;;;9.36;47.69824;964.5387;;;;
2019/04/21 05:56:48;;;;;;;11.4;8.9;;;;;;;9.43;45.43359;964.503;;;;
2019/04/21 05:59:13;;;;;;;11.4;8.7;;;;;;;9.53;46.83301;964.5563;;;;
2019/04/21 06:01:42;;;;;;;12.6;8.6;;;;;;;9.66;46.2373;964.5944;;;;
2019/04/21 06:04:06;;;;;;;10.7;9.1;;;;;;;9.66;47.17969;964.4991;;;;
2019/04/21 06:06:31;;;;;;;11.9;8.4;;;;;;;9.74;46.12012;964.5667;;;;
2019/04/21 06:08:56;;;;;;;11.4;8.8;;;;;;;9.76;46.99609;964.5563;;;;
2019/04/21 06:11:21;;;;;;;12.5;8.3;;;;;;;9.81;45.27832;964.535;;;;
2019/04/21 06:13:47;;;;;;;11.1;8;;;;;;;9.98;45.95117;964.5349;;;;
2019/04/21 06:16:12;;;;;;;11.1;8.2;;;;;;;10.17;43.78516;964.4816;;;;
2019/04/21 06:18:37;;;;;;;10.1;8.1;;;;;;;10.19;43.21387;964.4709;;;;
2019/04/21 06:21:02;;;;;;;10.8;8.2;;;;;;;10.13;43.16113;964.4977;;;;
2019/04/21 06:23:27;;;;;;;10;7.8;;;;;;;10.17;42.50977;964.473;;;;
2019/04/21 06:25:52;;;;;;;12.5;7.6;;;;;;;10.25;42.06934;964.4531;;;;
2019/04/21 06:28:17;;;;;;;9.7;7.7;;;;;;;10.35;43.50586;964.4849;;;;
2019/04/21 06:30:42;;;;;;;10.8;7.7;;;;;;;10.49;43.2666;964.478;;;;
2019/04/21 06:33:07;;;;;;;12.9;8;;;;;;;10.57;43.1709;964.494;;;;
2019/04/21 06:35:46;;;;;;;10.6;7.3;;;;;;;10.68;41.50098;964.4286;;;;
2019/04/21 06:38:23;;;;;;;10.4;7.8;;;;;;;10.67;41.62598;964.5031;;;;
2019/04/21 06:40:26;;;;;;;11;7.9;;;;;;;10.75;44.0752;964.41;;;;
2019/04/21 06:42:52;;;;;;;10.5;7.5;;;;;;;10.85;41.83984;964.5275;;;;
2019/04/21 06:45:22;;;;;;;9.7;7.3;;;;;;;10.9;42.73145;964.4113;;;;
2019/04/21 06:47:52;;;;;;;9.2;7.7;;;;;;;11.04;44.4043;964.4297;;;;
2019/04/21 06:50:22;;;;;;;10.1;7.9;;;;;;;11.18;43.00098;964.4142;;;;
2019/04/21 06:52:50;;;;;;;10.1;7.7;;;;;;;11.27;42.31934;964.4369;;;;
2019/04/21 06:55:15;;;;;;;11.2;7.6;;;;;;;11.39;42.01758;964.3449;;;;
2019/04/21 06:57:40;;;;;;;9.1;7.4;;;;;;;11.54;42.0332;964.4456;;;;
2019/04/21 07:00:05;;;;;;;11.9;7.7;;;;;;;11.64;41.88086;964.4547;;;;
2019/04/21 07:02:32;;;;;;;11.9;7.7;;;;;;;11.86;40.63379;964.423;;;;
2019/04/21 07:04:57;;;;;;;9.8;7.6;;;;;;;11.98;40.02051;964.4305;;;;
2019/04/21 07:07:23;;;;;;;11.6;7.9;;;;;;;11.98;40.24023;964.4648;;;;
2019/04/21 07:10:05;;;;;;;9.8;7.4;;;;;;;12.14;41.9873;964.4214;;;;
2019/04/21 07:12:52;;;;;;;10;7.2;;;;;;;12.18;39.93555;964.3956;;;;
2019/04/21 07:15:17;;;;;;;9.9;7;;;;;;;12.29;41.51758;964.3514;;;;
2019/04/21 07:17:42;;;;;;;11;7.5;;;;;;;12.41;40.62598;964.3894;;;;
2019/04/21 07:20:26;;;;;;;13;7.3;;;;;;;12.42;40.32715;964.353;;;;
2019/04/21 07:22:51;;;;;;;10.3;6.7;;;;;;;12.51;40.11523;964.2893;;;;
2019/04/21 07:25:17;;;;;;;9.8;6.7;;;;;;;12.61;40.29883;964.2977;;;;
2019/04/21 07:27:43;;;;;;;11.5;7.5;;;;;;;12.63;39.59375;964.3137;;;;
2019/04/21 07:30:10;;;;;;;9.5;7.2;;;;;;;12.67;39.83008;964.2701;;;;
2019/04/21 07:32:35;;;;;;;11.8;7.5;;;;;;;12.75;39.96387;964.2285;;;;
2019/04/21 07:35:00;;;;;;;11.6;7.2;;;;;;;12.83;40.51465;964.2823;;;;
2019/04/21 07:37:25;;;;;;;8.1;6.6;;;;;;;12.96;40.22656;964.21;;;;
2019/04/21 07:39:50;;;;;;;12.1;7;;;;;;;13.04;40.0957;964.1457;;;;
2019/04/21 07:42:16;;;;;;;9.2;7.2;;;;;;;13.13;40.54297;964.1725;;;;
2019/04/21 07:44:41;;;;;;;10.6;7.2;;;;;;;13.21;39.53125;964.1658;;;;
2019/04/21 07:47:11;;;;;;;11.7;6.8;;;;;;;13.28;40.16309;964.19;;;;
2019/04/21 07:49:44;;;;;;;12.8;7.5;;;;;;;13.42;39.14648;964.1989;;;;
2019/04/21 07:55:58;;;;;;;9.3;7;;;;;;;13.65;40.08203;964.1738;;;;
2019/04/21 07:58:23;;;;;;;12.2;7.4;;;;;;;13.7;39.90137;964.1861;;;;
2019/04/21 08:00:48;;;;;;;9;7.2;;;;;;;13.85;39.14941;964.1636;;;;
2019/04/21 08:03:14;;;;;;;10.3;7.1;;;;;;;14.05;39.68945;964.1103;;;;
2019/04/21 08:05:39;;;;;;;8.9;6.9;;;;;;;14.19;40.49023;964.1105;;;;
2019/04/21 08:08:05;;;;;;;7.8;6.7;;;;;;;14.24;38.89453;964.0834;;;;
2019/04/21 08:10:30;;;;;;;7.9;6.5;;;;;;;14.32;39.37793;964.0275;;;;
2019/04/21 08:12:55;;;;;;;8.7;6.2;;;;;;;14.46;38.18164;964.0497;;;;
2019/04/21 08:15:20;;;;;;;7.8;6.1;;;;;;;14.58;38.56348;964.0997;;;;
2019/04/21 08:17:45;;;;;;;8.6;6.3;;;;;;;14.67;37.73633;963.99;;;;
2019/04/21 08:20:13;;;;;;;10;6.8;;;;;;;14.86;38.54297;963.9458;;;;
2019/04/21 08:22:40;;;;;;;10.1;6.9;;;;;;;14.97;37.51758;963.978;;;;
2019/04/21 08:25:05;;;;;;;9.5;6.5;;;;;;;15.15;37.06836;963.9426;;;;
2019/04/21 08:27:31;;;;;;;11;7.3;;;;;;;15.23;36.12109;963.9656;;;;
2019/04/21 08:30:05;;;;;;;8.2;6.1;;;;;;;15.39;35.54004;963.9109;;;;
2019/04/21 08:32:30;;;;;;;8.9;6.8;;;;;;;15.43;35.70703;963.9193;;;;
2019/04/21 08:35:00;;;;;;;8.9;6.2;;;;;;;15.59;35.78906;963.8992;;;;
2019/04/21 08:37:31;;;;;;;7.5;5.1;;;;;;;15.77;33.66113;963.9163;;;;
2019/04/21 08:39:56;;;;;;;10;5.2;;;;;;;15.89;33.19238;963.8873;;;;
2019/04/21 08:42:24;;;;;;;6.8;4.9;;;;;;;16.01;33.58594;963.8484;;;;
2019/04/21 08:44:51;;;;;;;6.1;4.5;;;;;;;16.19;33.53027;963.8862;;;;
2019/04/21 08:47:18;;;;;;;6.8;4.6;;;;;;;16.23;32.07617;963.8164;;;;
2019/04/21 08:49:56;;;;;;;5.7;4.3;;;;;;;16.32;32.07031;963.8069;;;;
2019/04/21 08:52:21;;;;;;;6.6;4.7;;;;;;;16.57;31.90234;963.7812;;;;
2019/04/21 08:55:01;;;;;;;6.6;4.7;;;;;;;16.65;31.37109;963.6761;;;;
2019/04/21 08:57:24;;;;;;;7.3;4.6;;;;;;;16.69;31.05859;963.6506;;;;
2019/04/21 09:02:26;;;;;;;7.6;4.4;;;;;;;16.92;31.40234;963.6744;;;;
2019/04/21 09:04:47;;;;;;;7.3;4;;;;;;;17.02;29.89063;963.7081;;;;
2019/04/21 09:07:22;;;;;;;5.6;3.7;;;;;;;17.05;29.93945;963.6785;;;;
2019/04/21 09:09:49;;;;;;;6.7;4.6;;;;;;;17.21;29.15527;963.6088;;;;
2019/04/21 09:12:14;;;;;;;5.2;3.8;;;;;;;17.28;30.69141;963.6407;;;;
2019/04/21 09:14:39;;;;;;;5.9;3.9;;;;;;;17.5;30.33301;963.6472;;;;
2019/04/21 09:17:04;;;;;;;5.3;3.9;;;;;;;17.6;28.67871;963.614;;;;
2019/04/21 09:19:29;;;;;;;5.3;3.5;;;;;;;17.71;28.33496;963.6459;;;;
2019/04/21 09:21:55;;;;;;;6.2;3.8;;;;;;;17.71;28.90723;963.5806;;;;
2019/04/21 09:24:20;;;;;;;6.2;4.1;;;;;;;17.82;29.5;963.5775;;;;
2019/04/21 09:26:45;;;;;;;5.8;3.9;;;;;;;17.98;28.9375;963.507;;;;
2019/04/21 09:29:10;;;;;;;7.8;3.4;;;;;;;18.03;28.33203;963.4967;;;;
2019/04/21 09:31:35;;;;;;;6;3.9;;;;;;;18.14;29.65039;963.5236;;;;
2019/04/21 09:34:01;;;;;;;5.9;3.5;;;;;;;18.27;28.46484;963.4306;;;;
2019/04/21 09:36:26;;;;;;;8;3.5;;;;;;;18.43;26.85742;963.4827;;;;
2019/04/21 09:38:52;;;;;;;6.8;3.3;;;;;;;18.43;27.28027;963.4339;;;;
2019/04/21 09:41:17;;;;;;;5.3;3.3;;;;;;;18.51;27.27246;963.3895;;;;
2019/04/21 09:43:42;;;;;;;5;3.2;;;;;;;18.6;29.3418;963.3181;;;;
2019/04/21 09:46:07;;;;;;;5.1;3.2;;;;;;;18.69;27.24902;963.2639;;;;
2019/04/21 09:48:33;;;;;;;5.5;3;;;;;;;18.73;27.29883;963.2905;;;;
2019/04/21 09:50:58;;;;;;;7.2;3.1;;;;;;;18.67;25.65332;963.2617;;;;
2019/04/21 09:53:24;;;;;;;5.6;3.1;;;;;;;18.73;25.38672;963.2556;;;;
2019/04/21 09:55:49;;;;;;;5.7;3.3;;;;;;;18.82;27.08105;963.1702;;;;
2019/04/21 09:58:15;;;;;;;4.1;3;;;;;;;18.89;27.50781;963.1489;;;;
2019/04/21 10:00:40;;;;;;;5.4;3.4;;;;;;;19.03;25.27539;963.1717;;;;
2019/04/21 10:03:06;;;;;;;6.4;3.1;;;;;;;19.2;25.09668;963.1131;;;;
2019/04/21 10:05:31;;;;;;;5.3;3.5;;;;;;;19.24;24.88867;963.113;;;;
2019/04/21 10:07:57;;;;;;;4.9;3.2;;;;;;;19.29;23.78711;963.0444;;;;
2019/04/21 10:10:22;;;;;;;6.5;3.4;;;;;;;19.4;25.37793;963.1205;;;;
2019/04/21 10:12:47;;;;;;;4.5;3.1;;;;;;;19.4;26.62402;963.0848;;;;
2019/04/21 10:15:12;;;;;;;4.5;3.1;;;;;;;19.59;23.99121;962.9959;;;;
2019/04/21 10:17:41;;;;;;;4.5;3.1;;;;;;;19.74;25.28027;963.0319;;;;
2019/04/21 10:20:18;;;;;;;3.7;3;;;;;;;19.86;22.8418;963.0488;;;;
2019/04/21 10:22:59;;;;;;;5;2.9;;;;;;;19.91;26.20801;963.0068;;;;
2019/04/21 10:25:24;;;;;;;4.8;3;;;;;;;20.06;22.62988;962.9089;;;;
2019/04/21 10:27:50;;;;;;;5.4;3;;;;;;;20.19;24.00098;962.8495;;;;
2019/04/21 10:30:15;;;;;;;6.7;3;;;;;;;20.1;21.87891;962.878;;;;
2019/04/21 10:32:40;;;;;;;5.4;3;;;;;;;20.22;22.56738;962.8061;;;;
2019/04/21 10:35:06;;;;;;;4.3;2.9;;;;;;;20.35;21.49121;962.9094;;;;
2019/04/21 10:37:32;;;;;;;5.3;2.9;;;;;;;20.39;22.69336;962.9402;;;;
2019/04/21 10:40:03;;;;;;;4.8;3.1;;;;;;;20.55;22.19434;962.8861;;;;
2019/04/21 10:42:28;;;;;;;3.6;2.7;;;;;;;20.72;21.79102;962.847;;;;
2019/04/21 10:44:56;;;;;;;4.5;2.9;;;;;;;20.79;20.69922;962.7541;;;;
2019/04/21 10:47:21;;;;;;;6.2;2.9;;;;;;;21.02;20.25;962.7079;;;;
2019/04/21 10:49:46;;;;;;;4.1;2.9;;;;;;;21.51;21.2998;962.7303;;;;
2019/04/21 10:52:23;;;;;;;3.9;2.9;;;;;;;22.09;21.75195;962.7271;;;;
2019/04/21 10:54:37;;;;;;;4.8;3.1;;;;;;;23.07;19.14746;962.6795;;;;
2019/04/21 10:57:05;;;;;;;3.7;3;;;;;;;24.53;18.09375;962.6307;;;;
2019/04/21 10:59:27;;;;;;;5;2.8;;;;;;;25.92;15.09961;962.5975;;;;
2019/04/21 11:01:52;;;;;;;3.4;2.7;;;;;;;27.51;15.00977;962.5664;;;;
2019/04/21 11:04:27;;;;;;;5.6;2.9;;;;;;;29.28;16.85742;962.5872;;;;
2019/04/21 11:06:42;;;;;;;5.5;2.9;;;;;;;30.09;14.01367;962.5947;;;;
2019/04/21 11:09:07;;;;;;;3.7;2.8;;;;;;;30.57;13.18457;962.6152;;;;
2019/04/21 11:11:33;;;;;;;4.5;2.6;;;;;;;30.17;11.56152;962.5862;;;;
2019/04/21 11:13:58;;;;;;;3;2.7;;;;;;;30.37;10.95215;962.5594;;;;
2019/04/21 11:16:23;;;;;;;3.9;2.6;;;;;;;30.67;14.54883;962.5491;;;;
2019/04/21 11:18:48;;;;;;;6.8;2.4;;;;;;;31.58;12.85254;962.4327;;;;
2019/04/21 11:21:13;;;;;;;7.2;2.8;;;;;;;31.53;11.1377;962.4554;;;;
2019/04/21 11:23:39;;;;;;;5.6;2.7;;;;;;;31.14;11.80273;962.4091;;;;
2019/04/21 11:26:04;;;;;;;4.5;2.6;;;;;;;31.29;11.51758;962.4102;;;;
2019/04/21 11:28:30;;;;;;;3.3;2.5;;;;;;;31.86;11.55566;962.3546;;;;
2019/04/21 11:30:55;;;;;;;5;2.7;;;;;;;31.47;11.08789;962.2768;;;;
2019/04/21 11:33:20;;;;;;;3.8;2.6;;;;;;;32.61;10.09961;962.3292;;;;
2019/04/21 11:35:45;;;;;;;4.7;2.8;;;;;;;31.83;12.73926;962.2776;;;;
2019/04/21 11:38:13;;;;;;;3.2;2.7;;;;;;;32.13;11.85254;962.2536;;;;
2019/04/21 11:40:35;;;;;;;4.1;2.6;;;;;;;32.81;11.35059;962.2349;;;;
2019/04/21 11:43:19;;;;;;;4.7;2.6;;;;;;;32.43;10.86914;962.2164;;;;
2019/04/21 11:45:56;;;;;;;5.5;2.7;;;;;;;32.42;10.3125;962.2664;;;;
2019/04/21 11:48:25;;;;;;;4.2;3.2;;;;;;;31.31;11.46973;962.1462;;;;
2019/04/21 11:50:46;;;;;;;3.5;2.8;;;;;;;32.21;12.29004;962.1552;;;;
2019/04/21 11:53:11;;;;;;;4.2;2.6;;;;;;;32.83;9.668945;962.1633;;;;
2019/04/21 11:55:37;;;;;;;3.8;2.6;;;;;;;32.37;9.610352;962.2125;;;;
2019/04/21 11:58:02;;;;;;;3.9;2.5;;;;;;;33.06;10.02441;962.1652;;;;
2019/04/21 12:00:34;;;;;;;3.2;2.4;;;;;;;33.59;10.08496;962.0291;;;;
2019/04/21 12:02:59;;;;;;;4;2.6;;;;;;;33.6;11.16406;962.1592;;;;
2019/04/21 12:05:24;;;;;;;5.4;2.6;;;;;;;33.25;11.43359;962.108;;;;
2019/04/21 12:07:49;;;;;;;3.8;2.6;;;;;;;33.2;8.974609;962.0945;;;;
2019/04/21 12:10:14;;;;;;;4.6;2.3;;;;;;;34.5;9.060547;962.1365;;;;
2019/04/21 12:12:39;;;;;;;3.9;2.5;;;;;;;34.72;8.80957;962.0337;;;;
2019/04/21 12:15:04;;;;;;;5.3;2.5;;;;;;;34.16;8.993164;962.0217;;;;
2019/04/21 12:17:29;;;;;;;4.3;2.8;;;;;;;33.57;9.030273;961.9928;;;;
2019/04/21 12:19:57;;;;;;;4.5;2.6;;;;;;;32.98;9.889648;962.0069;;;;
2019/04/21 12:22:22;;;;;;;4.2;2.7;;;;;;;32.1;10.36621;961.9174;;;;
2019/04/21 12:24:47;;;;;;;5.9;2.6;;;;;;;32.52;9.045898;961.8133;;;;
2019/04/21 12:27:12;;;;;;;3.6;2.4;;;;;;;32.31;10.16504;961.9312;;;;
2019/04/21 12:29:37;;;;;;;3.1;2.7;;;;;;;31.77;10.63672;961.8616;;;;
2019/04/21 12:32:19;;;;;;;4;2.6;;;;;;;31.74;11.1543;961.7589;;;;
2019/04/21 12:34:27;;;;;;;4.9;3;;;;;;;31.2;10.61035;961.7827;;;;
2019/04/21 12:36:52;;;;;;;3.4;2.4;;;;;;;31.27;9.949219;961.7079;;;;
2019/04/21 12:39:18;;;;;;;3.6;2.8;;;;;;;31.54;12.64551;961.6719;;;;
2019/04/21 12:41:43;;;;;;;3;2.6;;;;;;;31.44;11.08691;961.6836;;;;
2019/04/21 12:44:09;;;;;;;5.4;2.9;;;;;;;31.15;11.52539;961.6519;;;;
2019/04/21 12:46:34;;;;;;;6.1;2.7;;;;;;;30.88;12.51953;961.5773;;;;
2019/04/21 12:49:05;;;;;;;4.4;3;;;;;;;30.62;12.72852;961.5533;;;;
2019/04/21 12:51:31;;;;;;;4.2;2.8;;;;;;;30.77;12.55273;961.4548;;;;
2019/04/21 12:53:57;;;;;;;4.3;2.6;;;;;;;31.04;10.66699;961.4018;;;;
2019/04/21 12:56:22;;;;;;;4.5;2.8;;;;;;;30.77;11.97461;961.374;;;;
2019/04/21 12:58:47;;;;;;;4.1;2.8;;;;;;;30.87;10.65137;961.3981;;;;
2019/04/21 13:01:12;;;;;;;3.6;2.7;;;;;;;30.3;12.20215;961.3809;;;;
2019/04/21 13:03:38;;;;;;;5.2;2.8;;;;;;;29.93;12.81738;961.3162;;;;
2019/04/21 13:06:03;;;;;;;4.6;2.8;;;;;;;29.77;12.48828;961.2541;;;;
2019/04/21 13:08:28;;;;;;;3.4;2.6;;;;;;;30.46;12.14648;961.2598;;;;
2019/04/21 13:10:55;;;;;;;3.6;2.7;;;;;;;30.12;14.74805;961.2319;;;;
2019/04/21 13:13:20;;;;;;;4.7;2.9;;;;;;;30.12;15.24121;961.2266;;;;
2019/04/21 13:15:45;;;;;;;4.7;2.9;;;;;;;30.18;12.53613;961.1895;;;;
2019/04/21 13:18:11;;;;;;;3.8;3;;;;;;;30.45;12.375;961.1141;;;;
2019/04/21 13:20:36;;;;;;;4.2;2.8;;;;;;;30.49;13.50781;961.0945;;;;
2019/04/21 13:23:01;;;;;;;8.4;3.1;;;;;;;29.63;12.43652;961.1367;;;;
2019/04/21 13:25:26;;;;;;;4.9;3.4;;;;;;;29.54;12.53027;961.0883;;;;
2019/04/21 13:27:51;;;;;;;4.1;3;;;;;;;29.41;12.40625;961.111;;;;
2019/04/21 13:30:16;;;;;;;4.1;3.1;;;;;;;29.34;13.35352;961.0266;;;;
2019/04/21 13:32:41;;;;;;;4.2;2.6;;;;;;;29.35;13.05371;961.0161;;;;
2019/04/21 13:35:07;;;;;;;4.5;3.1;;;;;;;29.51;13.63477;960.9992;;;;
2019/04/21 13:37:32;;;;;;;3.6;2.9;;;;;;;29.57;13.78027;960.9542;;;;
2019/04/21 13:42:25;;;;;;;5.4;2.7;;;;;;;29.17;11.43945;960.7814;;;;
2019/04/21 13:44:48;;;;;;;4.5;3.2;;;;;;;29.04;12.71973;960.7633;;;;
2019/04/21 13:47:13;;;;;;;5.6;3.2;;;;;;;29.12;13.41895;960.7592;;;;
2019/04/21 13:49:52;;;;;;;5.6;3.7;;;;;;;28.86;12.94336;960.7551;;;;
2019/04/21 13:52:17;;;;;;;4.7;3.3;;;;;;;29.39;13.91895;960.702;;;;
2019/04/21 13:54:45;;;;;;;11.4;3;;;;;;;29.86;14.49902;960.5974;;;;
2019/04/21 13:57:10;;;;;;;4.3;3.2;;;;;;;29.68;12.8584;960.5874;;;;
2019/04/21 13:59:37;;;;;;;5.4;3.2;;;;;;;28.76;14.03125;960.6195;;;;
2019/04/21 14:02:02;;;;;;;4.6;2.8;;;;;;;28.66;13.44043;960.5642;;;;
2019/04/21 14:04:27;;;;;;;3.1;2.7;;;;;;;28.76;13.91113;960.4142;;;;
2019/04/21 14:06:52;;;;;;;3.6;2.8;;;;;;;28.63;13.58398;960.3947;;;;
2019/04/21 14:09:17;;;;;;;3.9;2.9;;;;;;;28.2;13.19922;960.4402;;;;
2019/04/21 14:11:42;;;;;;;5.2;3;;;;;;;27.64;13.58984;960.3898;;;;
2019/04/21 14:14:08;;;;;;;5.4;2.7;;;;;;;27.68;15.0752;960.3386;;;;
2019/04/21 14:16:33;;;;;;;4;2.9;;;;;;;27.79;14.56348;960.3973;;;;
2019/04/21 14:18:58;;;;;;;5.9;2.8;;;;;;;27.13;13.87305;960.361;;;;
2019/04/21 14:21:24;;;;;;;3.7;2.8;;;;;;;27.36;13.58105;960.3083;;;;
2019/04/21 14:23:50;;;;;;;3;2.4;;;;;;;27.13;16.53809;960.2324;;;;